sensor_id;sensor_type;location;lat;lon;timestamp;temperature;humidity
18073;DHT22;9161;47.348;9.648;2023-12-20T00:02:58;2.90;99.90
18073;DHT22;9161;47.348;9.648;2023-12-20T00:08:01;2.90;99.90
18073;DHT22;9161;47.348;9.648;2023-12-20T00:13:05;2.90;99.90
18073;DHT22;9161;47.348;9.648;2023-12-20T00:18:08;3.00;99.90
18073;DHT22;9161;47.348;9.648;2023-12-20T00:23:10;3.00;99.90
18073;DHT22;9161;47.348;9.648;2023-12-20T00:28:14;3.10;99.90
18073;DHT22;9161;47.348;9.648;2023-12-20T00:33:16;3.00;99.90
18073;DHT22;9161;47.348;9.648;2023-12-20T00:38:19;2.90;99.90
18073;DHT22;9161;47.348;9.648;2023-12-20T00:43:22;2.80;99.90
18073;DHT22;9161;47.348;9.648;2023-12-20T00:48:25;2.70;99.90
18073;DHT22;9161;47.348;9.648;2023-12-20T00:53:28;2.70;99.90
18073;DHT22;9161;47.348;9.648;2023-12-20T00:58:31;2.60;99.90
18073;DHT22;9161;47.348;9.648;2023-12-20T01:03:33;2.50;99.90
18073;DHT22;9161;47.348;9.648;2023-12-20T01:08:37;2.60;99.90
18073;DHT22;9161;47.348;9.648;2023-12-20T01:13:40;2.60;99.90
18073;DHT22;9161;47.348;9.648;2023-12-20T01:18:42;2.60;99.90
18073;DHT22;9161;47.348;9.648;2023-12-20T01:23:46;2.50;99.90
18073;DHT22;9161;47.348;9.648;2023-12-20T01:28:50;2.50;99.90
18073;DHT22;9161;47.348;9.648;2023-12-20T01:33:53;2.50;99.90
18073;DHT22;9161;47.348;9.648;2023-12-20T01:38:57;2.50;99.90
18073;DHT22;9161;47.348;9.648;2023-12-20T01:44:00;2.60;99.90
18073;DHT22;9161;47.348;9.648;2023-12-20T01:49:02;2.60;99.90
18073;DHT22;9161;47.348;9.648;2023-12-20T01:54:05;2.60;99.90
18073;DHT22;9161;47.348;9.648;2023-12-20T01:59:09;2.70;99.90
18073;DHT22;9161;47.348;9.648;2023-12-20T02:04:11;2.80;99.90
18073;DHT22;9161;47.348;9.648;2023-12-20T02:09:15;2.80;99.90
18073;DHT22;9161;47.348;9.648;2023-12-20T02:14:19;2.90;99.90
18073;DHT22;9161;47.348;9.648;2023-12-20T02:19:21;2.90;99.90
18073;DHT22;9161;47.348;9.648;2023-12-20T02:24:25;2.90;99.90
18073;DHT22;9161;47.348;9.648;2023-12-20T02:29:27;2.70;99.90
18073;DHT22;9161;47.348;9.648;2023-12-20T02:34:29;2.80;99.90
18073;DHT22;9161;47.348;9.648;2023-12-20T02:39:33;2.90;99.90
18073;DHT22;9161;47.348;9.648;2023-12-20T02:44:35;3.10;99.90
18073;DHT22;9161;47.348;9.648;2023-12-20T02:49:38;3.10;99.90
18073;DHT22;9161;47.348;9.648;2023-12-20T02:54:42;3.20;99.90
18073;DHT22;9161;47.348;9.648;2023-12-20T02:59:44;3.20;99.90
18073;DHT22;9161;47.348;9.648;2023-12-20T03:04:46;3.10;99.90
18073;DHT22;9161;47.348;9.648;2023-12-20T03:09:50;3.10;99.90
18073;DHT22;9161;47.348;9.648;2023-12-20T03:15:12;3.10;99.90
18073;DHT22;9161;47.348;9.648;2023-12-20T03:20:15;3.20;99.90
18073;DHT22;9161;47.348;9.648;2023-12-20T03:25:18;3.20;99.90
18073;DHT22;9161;47.348;9.648;2023-12-20T03:30:20;3.20;99.90
18073;DHT22;9161;47.348;9.648;2023-12-20T03:35:22;3.30;99.90
18073;DHT22;9161;47.348;9.648;2023-12-20T03:40:26;3.30;99.90
18073;DHT22;9161;47.348;9.648;2023-12-20T03:45:28;3.30;99.90
18073;DHT22;9161;47.348;9.648;2023-12-20T03:50:30;3.40;99.90
18073;DHT22;9161;47.348;9.648;2023-12-20T03:55:33;3.40;99.90
18073;DHT22;9161;47.348;9.648;2023-12-20T04:00:35;3.40;99.90
18073;DHT22;9161;47.348;9.648;2023-12-20T04:05:37;3.40;99.90
18073;DHT22;9161;47.348;9.648;2023-12-20T04:10:41;3.50;99.90
18073;DHT22;9161;47.348;9.648;2023-12-20T04:15:43;3.50;99.90
18073;DHT22;9161;47.348;9.648;2023-12-20T04:20:45;3.40;99.90
18073;DHT22;9161;47.348;9.648;2023-12-20T04:25:49;3.40;99.90
18073;DHT22;9161;47.348;9.648;2023-12-20T04:30:51;3.40;99.90
18073;DHT22;9161;47.348;9.648;2023-12-20T04:35:53;3.30;99.90
18073;DHT22;9161;47.348;9.648;2023-12-20T04:40:56;3.30;99.90
18073;DHT22;9161;47.348;9.648;2023-12-20T04:45:58;3.50;99.90
18073;DHT22;9161;47.348;9.648;2023-12-20T04:51:00;3.50;99.90
18073;DHT22;9161;47.348;9.648;2023-12-20T04:56:04;3.50;99.90
18073;DHT22;9161;47.348;9.648;2023-12-20T05:01:06;3.50;99.90
18073;DHT22;9161;47.348;9.648;2023-12-20T05:06:09;3.50;99.90
18073;DHT22;9161;47.348;9.648;2023-12-20T05:11:13;3.50;99.90
18073;DHT22;9161;47.348;9.648;2023-12-20T05:16:17;3.50;99.90
18073;DHT22;9161;47.348;9.648;2023-12-20T05:21:19;3.50;99.90
18073;DHT22;9161;47.348;9.648;2023-12-20T05:26:23;3.40;99.90
18073;DHT22;9161;47.348;9.648;2023-12-20T05:31:24;3.40;99.90
18073;DHT22;9161;47.348;9.648;2023-12-20T05:36:27;3.40;99.90
18073;DHT22;9161;47.348;9.648;2023-12-20T05:41:30;3.30;99.90
18073;DHT22;9161;47.348;9.648;2023-12-20T05:46:33;3.40;99.90
18073;DHT22;9161;47.348;9.648;2023-12-20T05:51:35;3.40;99.90
18073;DHT22;9161;47.348;9.648;2023-12-20T05:56:38;3.50;99.90
18073;DHT22;9161;47.348;9.648;2023-12-20T06:01:40;3.60;99.90
18073;DHT22;9161;47.348;9.648;2023-12-20T06:06:43;3.80;99.90
18073;DHT22;9161;47.348;9.648;2023-12-20T06:11:47;3.80;99.90
18073;DHT22;9161;47.348;9.648;2023-12-20T06:16:49;3.90;99.90
18073;DHT22;9161;47.348;9.648;2023-12-20T06:21:51;3.90;99.90
18073;DHT22;9161;47.348;9.648;2023-12-20T06:26:54;4.00;99.90
18073;DHT22;9161;47.348;9.648;2023-12-20T06:31:56;4.80;99.90
18073;DHT22;9161;47.348;9.648;2023-12-20T06:36:58;4.60;99.90
18073;DHT22;9161;47.348;9.648;2023-12-20T06:42:03;4.40;99.90
18073;DHT22;9161;47.348;9.648;2023-12-20T06:47:05;4.20;99.90
18073;DHT22;9161;47.348;9.648;2023-12-20T06:52:07;4.20;99.90
18073;DHT22;9161;47.348;9.648;2023-12-20T06:57:11;4.30;99.90
18073;DHT22;9161;47.348;9.648;2023-12-20T07:02:14;4.20;99.90
18073;DHT22;9161;47.348;9.648;2023-12-20T07:07:16;4.20;99.90
18073;DHT22;9161;47.348;9.648;2023-12-20T07:12:20;4.20;99.90
18073;DHT22;9161;47.348;9.648;2023-12-20T07:17:22;4.30;99.90
18073;DHT22;9161;47.348;9.648;2023-12-20T07:22:24;4.30;99.90
18073;DHT22;9161;47.348;9.648;2023-12-20T07:27:28;4.40;99.90
18073;DHT22;9161;47.348;9.648;2023-12-20T07:32:30;4.30;99.90
18073;DHT22;9161;47.348;9.648;2023-12-20T07:37:33;4.40;99.90
18073;DHT22;9161;47.348;9.648;2023-12-20T07:42:36;4.40;99.90
18073;DHT22;9161;47.348;9.648;2023-12-20T07:47:39;5.10;99.90
18073;DHT22;9161;47.348;9.648;2023-12-20T07:52:41;5.40;99.90
18073;DHT22;9161;47.348;9.648;2023-12-20T07:57:45;6.20;99.90
18073;DHT22;9161;47.348;9.648;2023-12-20T08:02:48;6.20;99.90
18073;DHT22;9161;47.348;9.648;2023-12-20T08:07:50;4.80;99.90
18073;DHT22;9161;47.348;9.648;2023-12-20T08:12:54;4.30;99.90
18073;DHT22;9161;47.348;9.648;2023-12-20T08:17:57;4.20;99.90
18073;DHT22;9161;47.348;9.648;2023-12-20T08:22:59;4.10;99.90
18073;DHT22;9161;47.348;9.648;2023-12-20T08:28:03;4.10;99.90
18073;DHT22;9161;47.348;9.648;2023-12-20T08:33:06;4.10;99.90
18073;DHT22;9161;47.348;9.648;2023-12-20T08:38:12;4.00;99.90
18073;DHT22;9161;47.348;9.648;2023-12-20T08:43:16;4.10;99.90
18073;DHT22;9161;47.348;9.648;2023-12-20T08:48:18;4.10;99.90
18073;DHT22;9161;47.348;9.648;2023-12-20T08:53:21;4.10;99.90
18073;DHT22;9161;47.348;9.648;2023-12-20T08:58:24;4.20;99.90
18073;DHT22;9161;47.348;9.648;2023-12-20T09:03:27;4.20;99.90
18073;DHT22;9161;47.348;9.648;2023-12-20T09:08:29;4.20;99.90
18073;DHT22;9161;47.348;9.648;2023-12-20T09:13:33;4.50;99.90
18073;DHT22;9161;47.348;9.648;2023-12-20T09:18:35;4.40;99.90
18073;DHT22;9161;47.348;9.648;2023-12-20T09:23:37;4.40;99.90
18073;DHT22;9161;47.348;9.648;2023-12-20T09:28:42;4.50;99.90
18073;DHT22;9161;47.348;9.648;2023-12-20T09:33:44;4.70;99.90
18073;DHT22;9161;47.348;9.648;2023-12-20T09:38:46;4.70;99.90
18073;DHT22;9161;47.348;9.648;2023-12-20T09:43:52;5.00;99.90
18073;DHT22;9161;47.348;9.648;2023-12-20T09:48:56;5.30;99.90
18073;DHT22;9161;47.348;9.648;2023-12-20T09:54:00;5.40;99.90
18073;DHT22;9161;47.348;9.648;2023-12-20T09:59:04;5.60;99.90
18073;DHT22;9161;47.348;9.648;2023-12-20T10:04:09;5.50;99.90
18073;DHT22;9161;47.348;9.648;2023-12-20T10:09:30;5.50;99.90
18073;DHT22;9161;47.348;9.648;2023-12-20T10:14:34;5.60;99.90
18073;DHT22;9161;47.348;9.648;2023-12-20T10:19:37;5.80;99.90
18073;DHT22;9161;47.348;9.648;2023-12-20T10:24:40;5.80;99.90
18073;DHT22;9161;47.348;9.648;2023-12-20T10:29:43;5.90;99.90
18073;DHT22;9161;47.348;9.648;2023-12-20T10:34:45;6.00;99.90
18073;DHT22;9161;47.348;9.648;2023-12-20T10:39:50;5.90;99.90
18073;DHT22;9161;47.348;9.648;2023-12-20T10:44:59;6.00;99.90
18073;DHT22;9161;47.348;9.648;2023-12-20T10:50:02;6.20;99.90
18073;DHT22;9161;47.348;9.648;2023-12-20T10:55:07;6.40;99.90
18073;DHT22;9161;47.348;9.648;2023-12-20T11:00:14;6.50;99.90
18073;DHT22;9161;47.348;9.648;2023-12-20T11:05:25;6.70;99.90
18073;DHT22;9161;47.348;9.648;2023-12-20T11:10:35;6.40;99.90
18073;DHT22;9161;47.348;9.648;2023-12-20T11:15:42;6.30;99.90
18073;DHT22;9161;47.348;9.648;2023-12-20T11:20:45;6.10;99.90
18073;DHT22;9161;47.348;9.648;2023-12-20T11:25:48;6.20;99.90
18073;DHT22;9161;47.348;9.648;2023-12-20T11:30:53;6.50;99.90
18073;DHT22;9161;47.348;9.648;2023-12-20T11:35:56;6.90;99.90
18073;DHT22;9161;47.348;9.648;2023-12-20T11:40:59;7.00;99.90
18073;DHT22;9161;47.348;9.648;2023-12-20T11:46:06;7.20;99.90
18073;DHT22;9161;47.348;9.648;2023-12-20T11:51:09;7.40;99.90
18073;DHT22;9161;47.348;9.648;2023-12-20T11:56:12;7.60;99.90
18073;DHT22;9161;47.348;9.648;2023-12-20T12:01:15;7.80;99.90
18073;DHT22;9161;47.348;9.648;2023-12-20T12:06:18;7.80;99.90
18073;DHT22;9161;47.348;9.648;2023-12-20T12:11:21;7.80;99.90
18073;DHT22;9161;47.348;9.648;2023-12-20T12:16:25;8.10;99.90
18073;DHT22;9161;47.348;9.648;2023-12-20T12:21:28;7.90;99.90
18073;DHT22;9161;47.348;9.648;2023-12-20T12:26:33;8.40;99.90
18073;DHT22;9161;47.348;9.648;2023-12-20T12:31:37;10.30;99.90
18073;DHT22;9161;47.348;9.648;2023-12-20T12:36:40;12.30;99.90
18073;DHT22;9161;47.348;9.648;2023-12-20T12:41:42;12.90;99.90
18073;DHT22;9161;47.348;9.648;2023-12-20T12:46:46;12.80;99.90
18073;DHT22;9161;47.348;9.648;2023-12-20T12:51:50;12.00;99.90
18073;DHT22;9161;47.348;9.648;2023-12-20T12:57:00;11.80;99.90
18073;DHT22;9161;47.348;9.648;2023-12-20T13:02:02;10.80;99.90
18073;DHT22;9161;47.348;9.648;2023-12-20T13:07:05;10.50;99.90
18073;DHT22;9161;47.348;9.648;2023-12-20T13:12:10;10.40;99.90
18073;DHT22;9161;47.348;9.648;2023-12-20T13:17:12;9.90;99.90
18073;DHT22;9161;47.348;9.648;2023-12-20T13:22:14;9.90;99.90
18073;DHT22;9161;47.348;9.648;2023-12-20T13:27:18;9.50;99.90
18073;DHT22;9161;47.348;9.648;2023-12-20T13:32:20;8.90;99.90
18073;DHT22;9161;47.348;9.648;2023-12-20T13:37:23;8.70;99.90
18073;DHT22;9161;47.348;9.648;2023-12-20T13:42:26;8.40;99.90
18073;DHT22;9161;47.348;9.648;2023-12-20T13:47:28;8.10;99.90
18073;DHT22;9161;47.348;9.648;2023-12-20T13:52:31;7.90;99.90
18073;DHT22;9161;47.348;9.648;2023-12-20T13:57:39;7.80;99.90
18073;DHT22;9161;47.348;9.648;2023-12-20T14:02:55;7.80;99.90
18073;DHT22;9161;47.348;9.648;2023-12-20T14:07:57;7.60;99.90
18073;DHT22;9161;47.348;9.648;2023-12-20T14:13:01;7.30;99.90
18073;DHT22;9161;47.348;9.648;2023-12-20T14:18:04;7.10;99.90
18073;DHT22;9161;47.348;9.648;2023-12-20T14:23:08;7.00;99.90
18073;DHT22;9161;47.348;9.648;2023-12-20T14:28:12;6.90;99.90
18073;DHT22;9161;47.348;9.648;2023-12-20T14:33:15;6.60;99.90
18073;DHT22;9161;47.348;9.648;2023-12-20T14:38:17;6.50;99.90
18073;DHT22;9161;47.348;9.648;2023-12-20T14:43:22;6.40;99.90
18073;DHT22;9161;47.348;9.648;2023-12-20T14:48:24;6.40;99.90
18073;DHT22;9161;47.348;9.648;2023-12-20T14:53:27;6.40;99.90
18073;DHT22;9161;47.348;9.648;2023-12-20T14:58:31;6.30;99.90
18073;DHT22;9161;47.348;9.648;2023-12-20T15:03:34;6.20;99.90
18073;DHT22;9161;47.348;9.648;2023-12-20T15:08:36;6.10;99.90
18073;DHT22;9161;47.348;9.648;2023-12-20T15:13:40;6.00;99.90
18073;DHT22;9161;47.348;9.648;2023-12-20T15:18:42;5.90;99.90
18073;DHT22;9161;47.348;9.648;2023-12-20T15:23:45;5.80;99.90
18073;DHT22;9161;47.348;9.648;2023-12-20T15:28:55;5.60;99.90
18073;DHT22;9161;47.348;9.648;2023-12-20T15:33:57;5.70;99.90
18073;DHT22;9161;47.348;9.648;2023-12-20T15:38:59;5.90;99.90
18073;DHT22;9161;47.348;9.648;2023-12-20T15:44:02;5.80;99.90
18073;DHT22;9161;47.348;9.648;2023-12-20T15:49:05;5.70;99.90
18073;DHT22;9161;47.348;9.648;2023-12-20T15:54:07;5.70;99.90
18073;DHT22;9161;47.348;9.648;2023-12-20T15:59:10;5.50;99.90
18073;DHT22;9161;47.348;9.648;2023-12-20T16:04:12;5.50;99.90
18073;DHT22;9161;47.348;9.648;2023-12-20T16:09:14;5.40;99.90
18073;DHT22;9161;47.348;9.648;2023-12-20T16:14:18;5.20;99.90
18073;DHT22;9161;47.348;9.648;2023-12-20T16:19:21;5.00;99.90
18073;DHT22;9161;47.348;9.648;2023-12-20T16:24:23;5.00;99.90
18073;DHT22;9161;47.348;9.648;2023-12-20T16:29:27;4.90;99.90
18073;DHT22;9161;47.348;9.648;2023-12-20T16:34:29;4.90;99.90
18073;DHT22;9161;47.348;9.648;2023-12-20T16:39:31;4.90;99.90
18073;DHT22;9161;47.348;9.648;2023-12-20T16:44:36;5.00;99.90
18073;DHT22;9161;47.348;9.648;2023-12-20T16:49:37;5.00;99.90
18073;DHT22;9161;47.348;9.648;2023-12-20T16:54:40;5.00;99.90
18073;DHT22;9161;47.348;9.648;2023-12-20T16:59:44;5.00;99.90
18073;DHT22;9161;47.348;9.648;2023-12-20T17:04:46;5.00;99.90
18073;DHT22;9161;47.348;9.648;2023-12-20T17:09:50;5.00;99.90
18073;DHT22;9161;47.348;9.648;2023-12-20T17:14:54;5.00;99.90
18073;DHT22;9161;47.348;9.648;2023-12-20T17:19:56;5.00;99.90
18073;DHT22;9161;47.348;9.648;2023-12-20T17:24:59;5.10;99.90
18073;DHT22;9161;47.348;9.648;2023-12-20T17:30:03;5.20;99.90
18073;DHT22;9161;47.348;9.648;2023-12-20T17:35:06;5.20;99.90
18073;DHT22;9161;47.348;9.648;2023-12-20T17:40:09;5.20;99.90
18073;DHT22;9161;47.348;9.648;2023-12-20T17:45:14;5.20;99.90
18073;DHT22;9161;47.348;9.648;2023-12-20T17:50:18;5.10;99.90
18073;DHT22;9161;47.348;9.648;2023-12-20T17:55:23;5.10;99.90
18073;DHT22;9161;47.348;9.648;2023-12-20T18:00:31;5.10;99.90
18073;DHT22;9161;47.348;9.648;2023-12-20T18:05:35;5.00;99.90
18073;DHT22;9161;47.348;9.648;2023-12-20T18:10:39;4.90;99.90
18073;DHT22;9161;47.348;9.648;2023-12-20T18:15:45;4.80;99.90
18073;DHT22;9161;47.348;9.648;2023-12-20T18:20:49;4.70;99.90
18073;DHT22;9161;47.348;9.648;2023-12-20T18:25:53;4.60;99.90
18073;DHT22;9161;47.348;9.648;2023-12-20T18:30:59;4.70;99.90
18073;DHT22;9161;47.348;9.648;2023-12-20T18:36:04;4.70;99.90
18073;DHT22;9161;47.348;9.648;2023-12-20T18:41:09;4.60;99.90
18073;DHT22;9161;47.348;9.648;2023-12-20T18:46:18;4.60;99.90
18073;DHT22;9161;47.348;9.648;2023-12-20T18:51:25;4.50;99.90
18073;DHT22;9161;47.348;9.648;2023-12-20T18:56:29;4.50;99.90
18073;DHT22;9161;47.348;9.648;2023-12-20T19:01:35;4.40;99.90
18073;DHT22;9161;47.348;9.648;2023-12-20T19:06:40;4.40;99.90
18073;DHT22;9161;47.348;9.648;2023-12-20T19:11:46;4.30;99.90
18073;DHT22;9161;47.348;9.648;2023-12-20T19:16:52;4.30;99.90
18073;DHT22;9161;47.348;9.648;2023-12-20T19:21:57;4.20;99.90
18073;DHT22;9161;47.348;9.648;2023-12-20T19:27:03;4.10;99.90
18073;DHT22;9161;47.348;9.648;2023-12-20T19:32:10;4.20;99.90
18073;DHT22;9161;47.348;9.648;2023-12-20T19:37:15;4.20;99.90
18073;DHT22;9161;47.348;9.648;2023-12-20T19:42:21;4.10;99.90
18073;DHT22;9161;47.348;9.648;2023-12-20T19:47:30;4.10;99.90
18073;DHT22;9161;47.348;9.648;2023-12-20T19:52:37;4.10;99.90
18073;DHT22;9161;47.348;9.648;2023-12-20T19:57:42;4.00;99.90
18073;DHT22;9161;47.348;9.648;2023-12-20T20:02:50;3.90;99.90
18073;DHT22;9161;47.348;9.648;2023-12-20T20:08:09;3.90;99.90
18073;DHT22;9161;47.348;9.648;2023-12-20T20:13:19;4.10;99.90
18073;DHT22;9161;47.348;9.648;2023-12-20T20:19:02;4.20;99.90
18073;DHT22;9161;47.348;9.648;2023-12-20T20:24:53;4.20;99.90
18073;DHT22;9161;47.348;9.648;2023-12-20T20:30:24;4.10;99.90
18073;DHT22;9161;47.348;9.648;2023-12-20T20:36:25;3.80;99.90
18073;DHT22;9161;47.348;9.648;2023-12-20T20:42:24;3.80;99.90
18073;DHT22;9161;47.348;9.648;2023-12-20T20:48:08;3.80;99.90
18073;DHT22;9161;47.348;9.648;2023-12-20T20:53:47;3.70;99.90
18073;DHT22;9161;47.348;9.648;2023-12-20T20:59:08;3.60;99.90
18073;DHT22;9161;47.348;9.648;2023-12-20T21:04:13;3.40;99.90
18073;DHT22;9161;47.348;9.648;2023-12-20T21:09:18;3.40;99.90
18073;DHT22;9161;47.348;9.648;2023-12-20T21:14:21;3.30;99.90
18073;DHT22;9161;47.348;9.648;2023-12-20T21:19:25;3.40;99.90
18073;DHT22;9161;47.348;9.648;2023-12-20T21:24:32;4.30;99.90
18073;DHT22;9161;47.348;9.648;2023-12-20T21:29:36;4.80;99.90
18073;DHT22;9161;47.348;9.648;2023-12-20T21:34:38;4.50;99.90
18073;DHT22;9161;47.348;9.648;2023-12-20T21:39:41;4.50;99.90
18073;DHT22;9161;47.348;9.648;2023-12-20T21:44:44;4.50;99.90
18073;DHT22;9161;47.348;9.648;2023-12-20T21:49:46;4.40;99.90
18073;DHT22;9161;47.348;9.648;2023-12-20T21:54:50;4.30;99.90
18073;DHT22;9161;47.348;9.648;2023-12-20T21:59:52;4.30;99.90
18073;DHT22;9161;47.348;9.648;2023-12-20T22:04:55;4.40;99.90
18073;DHT22;9161;47.348;9.648;2023-12-20T22:09:59;4.30;99.90
18073;DHT22;9161;47.348;9.648;2023-12-20T22:15:01;4.30;99.90
18073;DHT22;9161;47.348;9.648;2023-12-20T22:20:05;4.20;99.90
18073;DHT22;9161;47.348;9.648;2023-12-20T22:25:09;4.20;99.90
18073;DHT22;9161;47.348;9.648;2023-12-20T22:30:11;4.50;99.90
18073;DHT22;9161;47.348;9.648;2023-12-20T22:35:14;4.50;99.90
18073;DHT22;9161;47.348;9.648;2023-12-20T22:40:18;4.50;99.90
18073;DHT22;9161;47.348;9.648;2023-12-20T22:45:20;4.70;99.90
18073;DHT22;9161;47.348;9.648;2023-12-20T22:50:22;4.50;99.90
18073;DHT22;9161;47.348;9.648;2023-12-20T22:55:27;4.50;99.90
18073;DHT22;9161;47.348;9.648;2023-12-20T23:00:32;4.40;99.90
18073;DHT22;9161;47.348;9.648;2023-12-20T23:05:36;4.30;99.90
18073;DHT22;9161;47.348;9.648;2023-12-20T23:10:39;4.20;99.90
18073;DHT22;9161;47.348;9.648;2023-12-20T23:15:41;4.20;99.90
18073;DHT22;9161;47.348;9.648;2023-12-20T23:20:44;4.20;99.90
18073;DHT22;9161;47.348;9.648;2023-12-20T23:25:49;4.20;99.90
18073;DHT22;9161;47.348;9.648;2023-12-20T23:30:53;4.20;99.90
18073;DHT22;9161;47.348;9.648;2023-12-20T23:35:56;4.20;99.90
18073;DHT22;9161;47.348;9.648;2023-12-20T23:41:00;4.30;99.90
18073;DHT22;9161;47.348;9.648;2023-12-20T23:46:02;4.20;99.90
18073;DHT22;9161;47.348;9.648;2023-12-20T23:51:05;4.20;99.90
18073;DHT22;9161;47.348;9.648;2023-12-20T23:56:11;4.20;99.90
